sensor_id;sensor_type;location;lat;lon;timestamp;pressure;altitude;pressure_sealevel;temperature;humidity
19751;BME280;4663;49.120;9.730;2023-07-31T00:01:52;98092.47;;;15.74;87.33
19751;BME280;4663;49.120;9.730;2023-07-31T00:04:17;98085.38;;;15.88;88.02
19751;BME280;4663;49.120;9.730;2023-07-31T00:06:43;98085.03;;;15.98;88.54
19751;BME280;4663;49.120;9.730;2023-07-31T00:09:08;98082.59;;;16.25;88.36
19751;BME280;4663;49.120;9.730;2023-07-31T00:11:34;98075.03;;;15.99;85.65
19751;BME280;4663;49.120;9.730;2023-07-31T00:13:59;98084.38;;;16.18;87.01
19751;BME280;4663;49.120;9.730;2023-07-31T00:16:25;98079.06;;;16.25;87.38
19751;BME280;4663;49.120;9.730;2023-07-31T00:18:50;98081.97;;;16.23;87.60
19751;BME280;4663;49.120;9.730;2023-07-31T00:21:15;98074.78;;;16.15;89.00
19751;BME280;4663;49.120;9.730;2023-07-31T00:23:41;98075.88;;;15.77;87.04
19751;BME280;4663;49.120;9.730;2023-07-31T00:26:06;98084.34;;;16.11;87.60
19751;BME280;4663;49.120;9.730;2023-07-31T00:28:31;98081.13;;;16.01;87.35
19751;BME280;4663;49.120;9.730;2023-07-31T00:30:57;98071.84;;;15.88;87.25
19751;BME280;4663;49.120;9.730;2023-07-31T00:33:22;98076.84;;;15.70;85.44
19751;BME280;4663;49.120;9.730;2023-07-31T00:35:48;98078.25;;;15.87;87.85
19751;BME280;4663;49.120;9.730;2023-07-31T00:38:14;98079.09;;;15.88;88.51
19751;BME280;4663;49.120;9.730;2023-07-31T00:40:39;98077.94;;;15.97;89.96
19751;BME280;4663;49.120;9.730;2023-07-31T00:43:05;98074.78;;;16.15;89.57
19751;BME280;4663;49.120;9.730;2023-07-31T00:45:31;98073.00;;;16.01;87.65
19751;BME280;4663;49.120;9.730;2023-07-31T00:47:56;98088.03;;;15.66;87.80
19751;BME280;4663;49.120;9.730;2023-07-31T00:50:24;98080.19;;;15.72;87.91
19751;BME280;4663;49.120;9.730;2023-07-31T00:52:50;98084.56;;;15.94;88.25
19751;BME280;4663;49.120;9.730;2023-07-31T00:55:16;98083.81;;;15.42;86.02
19751;BME280;4663;49.120;9.730;2023-07-31T00:57:42;98085.69;;;15.78;86.72
19751;BME280;4663;49.120;9.730;2023-07-31T01:00:08;98073.66;;;15.81;84.36
19751;BME280;4663;49.120;9.730;2023-07-31T01:02:34;98075.56;;;15.65;86.43
19751;BME280;4663;49.120;9.730;2023-07-31T01:05:01;98064.44;;;15.75;84.58
19751;BME280;4663;49.120;9.730;2023-07-31T01:07:38;98060.94;;;15.81;86.01
19751;BME280;4663;49.120;9.730;2023-07-31T01:12:39;98066.41;;;15.45;88.51
19751;BME280;4663;49.120;9.730;2023-07-31T01:17:31;98051.69;;;15.32;87.82
19751;BME280;4663;49.120;9.730;2023-07-31T01:20:01;98057.28;;;15.31;90.48
19751;BME280;4663;49.120;9.730;2023-07-31T01:28:11;98058.38;;;15.36;90.18
19751;BME280;4663;49.120;9.730;2023-07-31T01:30:41;98041.06;;;15.31;86.75
19751;BME280;4663;49.120;9.730;2023-07-31T01:33:09;98041.78;;;15.18;88.47
19751;BME280;4663;49.120;9.730;2023-07-31T01:35:35;98036.06;;;15.27;84.69
19751;BME280;4663;49.120;9.730;2023-07-31T01:38:01;98042.69;;;15.25;85.83
19751;BME280;4663;49.120;9.730;2023-07-31T01:40:27;98044.97;;;15.43;87.73
19751;BME280;4663;49.120;9.730;2023-07-31T01:42:52;98030.16;;;15.39;86.87
19751;BME280;4663;49.120;9.730;2023-07-31T01:45:18;98038.06;;;15.40;86.80
19751;BME280;4663;49.120;9.730;2023-07-31T01:47:43;98035.09;;;15.35;87.42
19751;BME280;4663;49.120;9.730;2023-07-31T01:50:09;98036.69;;;15.66;88.42
19751;BME280;4663;49.120;9.730;2023-07-31T01:52:34;98030.13;;;15.54;87.96
19751;BME280;4663;49.120;9.730;2023-07-31T01:55:00;98022.56;;;15.49;86.98
19751;BME280;4663;49.120;9.730;2023-07-31T01:57:25;98026.91;;;15.65;87.28
19751;BME280;4663;49.120;9.730;2023-07-31T01:59:51;98022.41;;;15.73;86.88
19751;BME280;4663;49.120;9.730;2023-07-31T02:02:18;98024.34;;;15.42;85.54
19751;BME280;4663;49.120;9.730;2023-07-31T02:04:44;98025.88;;;15.66;87.88
19751;BME280;4663;49.120;9.730;2023-07-31T02:07:09;98027.53;;;15.67;88.29
19751;BME280;4663;49.120;9.730;2023-07-31T02:09:34;98033.97;;;15.45;88.27
19751;BME280;4663;49.120;9.730;2023-07-31T02:12:00;98029.00;;;15.70;88.83
19751;BME280;4663;49.120;9.730;2023-07-31T02:14:25;98020.06;;;15.48;86.89
19751;BME280;4663;49.120;9.730;2023-07-31T02:16:50;98008.97;;;15.21;85.75
19751;BME280;4663;49.120;9.730;2023-07-31T02:19:16;98022.13;;;15.46;88.71
19751;BME280;4663;49.120;9.730;2023-07-31T02:21:41;98018.13;;;15.41;87.97
19751;BME280;4663;49.120;9.730;2023-07-31T02:24:06;98018.94;;;15.42;88.49
19751;BME280;4663;49.120;9.730;2023-07-31T02:26:32;98011.59;;;15.73;87.03
19751;BME280;4663;49.120;9.730;2023-07-31T02:28:57;98013.50;;;15.57;87.89
19751;BME280;4663;49.120;9.730;2023-07-31T02:31:23;98001.69;;;15.21;86.61
19751;BME280;4663;49.120;9.730;2023-07-31T02:33:48;98007.63;;;15.53;88.06
19751;BME280;4663;49.120;9.730;2023-07-31T02:36:13;98011.19;;;15.54;86.99
19751;BME280;4663;49.120;9.730;2023-07-31T02:38:40;98000.75;;;15.73;86.18
19751;BME280;4663;49.120;9.730;2023-07-31T02:41:05;98000.81;;;15.58;85.90
19751;BME280;4663;49.120;9.730;2023-07-31T02:43:30;97994.84;;;15.62;85.64
19751;BME280;4663;49.120;9.730;2023-07-31T02:45:56;97991.81;;;15.72;86.45
19751;BME280;4663;49.120;9.730;2023-07-31T02:48:21;97984.66;;;15.42;86.35
19751;BME280;4663;49.120;9.730;2023-07-31T02:50:47;97988.25;;;15.72;86.31
19751;BME280;4663;49.120;9.730;2023-07-31T02:53:13;97993.44;;;15.45;85.52
19751;BME280;4663;49.120;9.730;2023-07-31T02:55:38;97995.34;;;15.51;86.49
19751;BME280;4663;49.120;9.730;2023-07-31T02:58:04;97993.63;;;15.43;87.19
19751;BME280;4663;49.120;9.730;2023-07-31T03:00:29;97994.47;;;15.65;87.81
19751;BME280;4663;49.120;9.730;2023-07-31T03:02:55;97981.13;;;15.20;88.09
19751;BME280;4663;49.120;9.730;2023-07-31T03:05:20;97988.53;;;15.55;87.88
19751;BME280;4663;49.120;9.730;2023-07-31T03:07:46;97993.66;;;15.28;87.95
19751;BME280;4663;49.120;9.730;2023-07-31T03:10:11;97978.66;;;15.69;88.35
19751;BME280;4663;49.120;9.730;2023-07-31T03:12:37;97976.81;;;14.74;87.29
19751;BME280;4663;49.120;9.730;2023-07-31T03:15:02;97983.91;;;15.49;87.20
19751;BME280;4663;49.120;9.730;2023-07-31T03:17:28;97981.31;;;15.03;87.74
19751;BME280;4663;49.120;9.730;2023-07-31T03:19:53;97979.75;;;15.09;86.68
19751;BME280;4663;49.120;9.730;2023-07-31T03:22:18;97978.47;;;15.27;86.45
19751;BME280;4663;49.120;9.730;2023-07-31T03:24:44;97977.84;;;15.25;85.73
19751;BME280;4663;49.120;9.730;2023-07-31T03:27:09;97988.41;;;15.41;85.88
19751;BME280;4663;49.120;9.730;2023-07-31T03:29:35;97978.41;;;15.42;84.85
19751;BME280;4663;49.120;9.730;2023-07-31T03:32:00;97984.28;;;15.46;86.94
19751;BME280;4663;49.120;9.730;2023-07-31T03:34:27;97994.56;;;15.35;87.09
19751;BME280;4663;49.120;9.730;2023-07-31T03:36:52;97988.41;;;15.41;86.36
19751;BME280;4663;49.120;9.730;2023-07-31T03:39:18;97982.97;;;15.63;86.18
19751;BME280;4663;49.120;9.730;2023-07-31T03:41:43;97991.09;;;15.41;86.21
19751;BME280;4663;49.120;9.730;2023-07-31T03:44:08;97993.63;;;15.43;85.95
19751;BME280;4663;49.120;9.730;2023-07-31T03:46:34;97983.63;;;15.44;86.57
19751;BME280;4663;49.120;9.730;2023-07-31T03:49:01;97982.66;;;15.29;86.12
19751;BME280;4663;49.120;9.730;2023-07-31T03:51:26;97989.38;;;15.55;86.29
19751;BME280;4663;49.120;9.730;2023-07-31T03:53:51;97983.88;;;15.27;86.25
19751;BME280;4663;49.120;9.730;2023-07-31T03:56:17;97984.53;;;15.29;87.19
19751;BME280;4663;49.120;9.730;2023-07-31T03:58:42;97982.47;;;15.09;86.40
19751;BME280;4663;49.120;9.730;2023-07-31T04:01:08;97982.53;;;15.38;86.89
19751;BME280;4663;49.120;9.730;2023-07-31T04:03:33;97988.38;;;15.63;86.84
19751;BME280;4663;49.120;9.730;2023-07-31T04:05:58;97976.94;;;15.61;86.19
19751;BME280;4663;49.120;9.730;2023-07-31T04:08:24;97991.34;;;15.47;85.78
19751;BME280;4663;49.120;9.730;2023-07-31T04:10:50;97992.72;;;15.36;85.43
19751;BME280;4663;49.120;9.730;2023-07-31T04:13:15;97987.75;;;15.61;86.32
19751;BME280;4663;49.120;9.730;2023-07-31T04:15:41;97987.25;;;15.51;86.72
19751;BME280;4663;49.120;9.730;2023-07-31T04:18:06;97978.94;;;15.52;85.31
19751;BME280;4663;49.120;9.730;2023-07-31T04:20:32;97984.84;;;15.85;86.40
19751;BME280;4663;49.120;9.730;2023-07-31T04:22:57;97976.97;;;16.12;86.22
19751;BME280;4663;49.120;9.730;2023-07-31T04:25:22;97974.38;;;16.03;84.33
19751;BME280;4663;49.120;9.730;2023-07-31T04:27:48;97977.28;;;16.02;83.41
19751;BME280;4663;49.120;9.730;2023-07-31T04:30:13;97966.63;;;16.22;83.28
19751;BME280;4663;49.120;9.730;2023-07-31T04:32:39;97966.47;;;16.30;81.75
19751;BME280;4663;49.120;9.730;2023-07-31T04:35:04;97973.78;;;16.37;82.08
19751;BME280;4663;49.120;9.730;2023-07-31T04:37:30;97966.78;;;15.92;83.10
19751;BME280;4663;49.120;9.730;2023-07-31T04:39:56;97977.00;;;16.54;84.46
19751;BME280;4663;49.120;9.730;2023-07-31T04:42:21;97977.28;;;16.02;84.13
19751;BME280;4663;49.120;9.730;2023-07-31T04:44:46;97966.66;;;16.29;83.12
19751;BME280;4663;49.120;9.730;2023-07-31T04:47:12;97975.41;;;16.31;84.46
19751;BME280;4663;49.120;9.730;2023-07-31T04:49:37;97974.28;;;16.47;83.54
19751;BME280;4663;49.120;9.730;2023-07-31T04:52:03;97972.16;;;16.42;82.15
19751;BME280;4663;49.120;9.730;2023-07-31T04:54:29;97974.13;;;16.62;82.50
19751;BME280;4663;49.120;9.730;2023-07-31T04:56:54;97969.41;;;16.78;83.19
19751;BME280;4663;49.120;9.730;2023-07-31T04:59:19;97968.31;;;17.07;83.60
19751;BME280;4663;49.120;9.730;2023-07-31T05:01:45;97970.28;;;16.43;82.08
19751;BME280;4663;49.120;9.730;2023-07-31T05:04:13;97968.38;;;16.79;80.93
19751;BME280;4663;49.120;9.730;2023-07-31T05:06:39;97961.31;;;16.84;80.24
19751;BME280;4663;49.120;9.730;2023-07-31T05:09:04;97964.97;;;17.12;81.39
19751;BME280;4663;49.120;9.730;2023-07-31T05:11:30;97966.47;;;17.21;81.81
19751;BME280;4663;49.120;9.730;2023-07-31T05:13:55;97965.66;;;17.28;80.50
19751;BME280;4663;49.120;9.730;2023-07-31T05:16:20;97974.19;;;17.25;80.13
19751;BME280;4663;49.120;9.730;2023-07-31T05:18:46;97962.06;;;17.14;79.38
19751;BME280;4663;49.120;9.730;2023-07-31T05:21:11;97969.38;;;17.27;80.65
19751;BME280;4663;49.120;9.730;2023-07-31T05:23:36;97965.25;;;17.44;79.83
19751;BME280;4663;49.120;9.730;2023-07-31T05:26:06;97959.38;;;17.20;79.50
19751;BME280;4663;49.120;9.730;2023-07-31T05:28:33;97962.28;;;17.26;79.54
19751;BME280;4663;49.120;9.730;2023-07-31T05:31:02;97962.91;;;17.21;79.57
19751;BME280;4663;49.120;9.730;2023-07-31T05:33:28;97956.41;;;17.15;79.90
19751;BME280;4663;49.120;9.730;2023-07-31T05:35:53;97951.13;;;16.93;81.25
19751;BME280;4663;49.120;9.730;2023-07-31T05:38:19;97960.53;;;16.98;81.68
19751;BME280;4663;49.120;9.730;2023-07-31T05:40:44;97946.97;;;16.91;79.82
19751;BME280;4663;49.120;9.730;2023-07-31T05:43:10;97945.94;;;16.99;80.67
19751;BME280;4663;49.120;9.730;2023-07-31T05:45:35;97955.91;;;16.91;81.55
19751;BME280;4663;49.120;9.730;2023-07-31T05:48:02;97948.34;;;16.73;80.03
19751;BME280;4663;49.120;9.730;2023-07-31T05:50:27;97952.41;;;16.98;80.22
19751;BME280;4663;49.120;9.730;2023-07-31T05:52:52;97946.13;;;16.90;80.23
19751;BME280;4663;49.120;9.730;2023-07-31T05:55:18;97954.22;;;16.77;81.34
19751;BME280;4663;49.120;9.730;2023-07-31T05:57:43;97947.19;;;16.96;80.84
19751;BME280;4663;49.120;9.730;2023-07-31T06:00:11;97956.34;;;16.95;80.02
19751;BME280;4663;49.120;9.730;2023-07-31T06:02:37;97963.75;;;17.21;80.06
19751;BME280;4663;49.120;9.730;2023-07-31T06:05:03;97959.59;;;17.39;79.82
19751;BME280;4663;49.120;9.730;2023-07-31T06:07:31;97967.97;;;17.44;82.66
19751;BME280;4663;49.120;9.730;2023-07-31T06:09:56;97961.50;;;17.39;81.45
19751;BME280;4663;49.120;9.730;2023-07-31T06:12:26;97959.00;;;17.37;80.65
19751;BME280;4663;49.120;9.730;2023-07-31T06:14:52;97957.34;;;17.43;80.55
19751;BME280;4663;49.120;9.730;2023-07-31T06:17:17;97951.25;;;17.41;81.54
19751;BME280;4663;49.120;9.730;2023-07-31T06:19:43;97957.78;;;17.60;82.56
19751;BME280;4663;49.120;9.730;2023-07-31T06:22:08;97957.56;;;17.89;81.75
19751;BME280;4663;49.120;9.730;2023-07-31T06:24:34;97953.41;;;17.99;79.99
19751;BME280;4663;49.120;9.730;2023-07-31T06:26:59;97951.72;;;18.12;79.53
19751;BME280;4663;49.120;9.730;2023-07-31T06:29:25;97945.66;;;18.23;79.25
19751;BME280;4663;49.120;9.730;2023-07-31T06:31:50;97945.84;;;18.29;78.22
19751;BME280;4663;49.120;9.730;2023-07-31T06:34:15;97948.78;;;18.20;77.49
19751;BME280;4663;49.120;9.730;2023-07-31T06:36:41;97944.75;;;18.36;77.33
19751;BME280;4663;49.120;9.730;2023-07-31T06:39:06;97944.91;;;18.69;77.02
19751;BME280;4663;49.120;9.730;2023-07-31T06:41:31;97953.44;;;18.72;77.17
19751;BME280;4663;49.120;9.730;2023-07-31T06:43:57;97959.81;;;19.05;77.40
19751;BME280;4663;49.120;9.730;2023-07-31T06:46:22;97958.84;;;19.64;76.03
19751;BME280;4663;49.120;9.730;2023-07-31T06:48:48;97968.84;;;20.40;75.89
19751;BME280;4663;49.120;9.730;2023-07-31T06:51:13;97936.56;;;20.43;70.79
19751;BME280;4663;49.120;9.730;2023-07-31T06:53:38;97942.22;;;20.61;72.04
19751;BME280;4663;49.120;9.730;2023-07-31T06:56:04;97946.59;;;20.80;72.35
19751;BME280;4663;49.120;9.730;2023-07-31T06:58:29;97948.28;;;20.63;75.82
19751;BME280;4663;49.120;9.730;2023-07-31T07:00:54;97927.25;;;21.01;68.64
19751;BME280;4663;49.120;9.730;2023-07-31T07:03:22;97927.78;;;21.10;68.44
19751;BME280;4663;49.120;9.730;2023-07-31T07:05:47;97941.19;;;21.54;70.24
19751;BME280;4663;49.120;9.730;2023-07-31T07:08:14;97934.63;;;21.31;71.34
19751;BME280;4663;49.120;9.730;2023-07-31T07:10:40;97935.91;;;21.28;71.94
19751;BME280;4663;49.120;9.730;2023-07-31T07:13:05;97938.34;;;21.61;69.19
19751;BME280;4663;49.120;9.730;2023-07-31T07:15:30;97927.47;;;21.18;66.90
19751;BME280;4663;49.120;9.730;2023-07-31T07:17:56;97945.56;;;21.31;73.15
19751;BME280;4663;49.120;9.730;2023-07-31T07:20:21;97926.25;;;21.56;67.54
19751;BME280;4663;49.120;9.730;2023-07-31T07:22:47;97920.31;;;21.59;66.08
19751;BME280;4663;49.120;9.730;2023-07-31T07:25:12;97929.88;;;21.38;67.59
19751;BME280;4663;49.120;9.730;2023-07-31T07:27:38;97935.03;;;21.58;70.88
19751;BME280;4663;49.120;9.730;2023-07-31T07:30:03;97919.13;;;21.55;67.82
19751;BME280;4663;49.120;9.730;2023-07-31T07:32:29;97915.91;;;21.35;68.82
19751;BME280;4663;49.120;9.730;2023-07-31T07:34:55;97917.66;;;20.98;68.72
19751;BME280;4663;49.120;9.730;2023-07-31T07:37:21;97919.28;;;21.18;69.16
19751;BME280;4663;49.120;9.730;2023-07-31T07:39:46;97917.91;;;21.27;69.62
19751;BME280;4663;49.120;9.730;2023-07-31T07:42:12;97926.19;;;21.02;68.28
19751;BME280;4663;49.120;9.730;2023-07-31T07:44:37;97937.06;;;20.52;72.42
19751;BME280;4663;49.120;9.730;2023-07-31T07:47:02;97939.16;;;20.88;72.61
19751;BME280;4663;49.120;9.730;2023-07-31T07:49:28;97916.25;;;20.39;70.43
19751;BME280;4663;49.120;9.730;2023-07-31T07:51:53;97909.47;;;20.98;70.40
19751;BME280;4663;49.120;9.730;2023-07-31T07:54:19;97914.69;;;21.00;71.72
19751;BME280;4663;49.120;9.730;2023-07-31T07:56:46;97903.06;;;21.23;68.34
19751;BME280;4663;49.120;9.730;2023-07-31T07:59:12;97908.91;;;21.51;69.11
19751;BME280;4663;49.120;9.730;2023-07-31T08:01:37;97904.78;;;21.72;66.97
19751;BME280;4663;49.120;9.730;2023-07-31T08:04:03;97919.41;;;22.38;70.09
19751;BME280;4663;49.120;9.730;2023-07-31T08:06:28;97921.56;;;23.18;66.51
19751;BME280;4663;49.120;9.730;2023-07-31T08:08:55;97896.94;;;23.18;63.30
19751;BME280;4663;49.120;9.730;2023-07-31T08:11:20;97902.03;;;23.95;65.39
19751;BME280;4663;49.120;9.730;2023-07-31T08:13:47;97892.41;;;23.92;63.17
19751;BME280;4663;49.120;9.730;2023-07-31T08:16:12;97905.63;;;23.44;63.46
19751;BME280;4663;49.120;9.730;2023-07-31T08:18:37;97884.31;;;24.59;64.51
19751;BME280;4663;49.120;9.730;2023-07-31T08:21:03;97881.03;;;25.12;61.70
19751;BME280;4663;49.120;9.730;2023-07-31T08:23:28;97884.16;;;25.21;61.87
19751;BME280;4663;49.120;9.730;2023-07-31T08:25:54;97866.25;;;25.41;59.85
19751;BME280;4663;49.120;9.730;2023-07-31T08:28:19;97870.94;;;24.90;60.42
19751;BME280;4663;49.120;9.730;2023-07-31T08:30:45;97865.38;;;24.80;59.54
19751;BME280;4663;49.120;9.730;2023-07-31T08:33:10;97897.53;;;23.20;64.01
19751;BME280;4663;49.120;9.730;2023-07-31T08:35:36;97869.50;;;24.38;61.83
19751;BME280;4663;49.120;9.730;2023-07-31T08:38:01;97868.19;;;24.90;60.65
19751;BME280;4663;49.120;9.730;2023-07-31T08:40:28;97867.72;;;25.26;61.52
19751;BME280;4663;49.120;9.730;2023-07-31T08:42:54;97846.22;;;24.85;58.45
19751;BME280;4663;49.120;9.730;2023-07-31T08:45:22;97854.34;;;25.02;59.01
19751;BME280;4663;49.120;9.730;2023-07-31T08:47:49;97844.47;;;25.34;57.92
19751;BME280;4663;49.120;9.730;2023-07-31T08:50:16;97867.28;;;25.73;58.89
19751;BME280;4663;49.120;9.730;2023-07-31T08:52:42;97849.47;;;25.37;58.72
19751;BME280;4663;49.120;9.730;2023-07-31T08:55:08;97869.97;;;25.02;59.06
19751;BME280;4663;49.120;9.730;2023-07-31T08:57:35;97858.19;;;25.29;59.43
19751;BME280;4663;49.120;9.730;2023-07-31T09:00:03;97846.50;;;24.39;59.49
19751;BME280;4663;49.120;9.730;2023-07-31T09:02:34;97838.56;;;24.87;57.48
19751;BME280;4663;49.120;9.730;2023-07-31T09:05:01;97865.38;;;24.58;61.53
19751;BME280;4663;49.120;9.730;2023-07-31T09:07:28;97850.78;;;24.74;59.43
19751;BME280;4663;49.120;9.730;2023-07-31T09:09:54;97850.03;;;25.39;58.86
19751;BME280;4663;49.120;9.730;2023-07-31T09:12:19;97849.78;;;25.84;57.88
19751;BME280;4663;49.120;9.730;2023-07-31T09:14:46;97862.31;;;25.69;58.54
19751;BME280;4663;49.120;9.730;2023-07-31T09:17:12;97855.56;;;25.82;58.63
19751;BME280;4663;49.120;9.730;2023-07-31T09:19:43;97845.59;;;25.05;59.15
19751;BME280;4663;49.120;9.730;2023-07-31T09:22:08;97825.34;;;25.12;56.33
19751;BME280;4663;49.120;9.730;2023-07-31T09:24:34;97842.63;;;25.12;58.95
19751;BME280;4663;49.120;9.730;2023-07-31T09:27:01;97844.69;;;25.60;60.08
19751;BME280;4663;49.120;9.730;2023-07-31T09:29:28;97821.03;;;24.88;57.26
19751;BME280;4663;49.120;9.730;2023-07-31T09:31:54;97827.44;;;25.65;57.44
19751;BME280;4663;49.120;9.730;2023-07-31T09:34:28;97846.59;;;25.60;59.22
19751;BME280;4663;49.120;9.730;2023-07-31T09:36:54;97829.34;;;24.71;60.39
19751;BME280;4663;49.120;9.730;2023-07-31T09:39:19;97832.41;;;24.75;59.92
19751;BME280;4663;49.120;9.730;2023-07-31T09:41:56;97823.59;;;24.73;59.39
19751;BME280;4663;49.120;9.730;2023-07-31T09:44:21;97816.16;;;24.23;58.65
19751;BME280;4663;49.120;9.730;2023-07-31T09:46:53;97813.81;;;24.32;59.06
19751;BME280;4663;49.120;9.730;2023-07-31T09:49:18;97805.72;;;24.20;57.85
19751;BME280;4663;49.120;9.730;2023-07-31T09:51:44;97833.09;;;23.98;60.29
19751;BME280;4663;49.120;9.730;2023-07-31T09:54:13;97828.97;;;24.18;60.72
19751;BME280;4663;49.120;9.730;2023-07-31T09:56:45;97817.50;;;24.43;59.47
19751;BME280;4663;49.120;9.730;2023-07-31T09:59:12;97830.63;;;24.19;62.11
19751;BME280;4663;49.120;9.730;2023-07-31T10:01:39;97843.13;;;24.32;64.70
19751;BME280;4663;49.120;9.730;2023-07-31T10:04:10;97819.06;;;24.61;61.23
19751;BME280;4663;49.120;9.730;2023-07-31T10:06:37;97798.50;;;24.59;59.20
19751;BME280;4663;49.120;9.730;2023-07-31T10:09:05;97806.34;;;24.50;59.77
19751;BME280;4663;49.120;9.730;2023-07-31T10:11:34;97800.38;;;24.58;59.58
19751;BME280;4663;49.120;9.730;2023-07-31T10:14:04;97802.78;;;24.27;60.55
19751;BME280;4663;49.120;9.730;2023-07-31T10:16:31;97805.88;;;24.58;61.93
19751;BME280;4663;49.120;9.730;2023-07-31T10:18:58;97811.34;;;23.34;62.27
19751;BME280;4663;49.120;9.730;2023-07-31T10:21:24;97809.59;;;24.02;62.72
19751;BME280;4663;49.120;9.730;2023-07-31T10:23:50;97795.41;;;24.27;60.10
19751;BME280;4663;49.120;9.730;2023-07-31T10:26:17;97793.38;;;24.18;60.35
19751;BME280;4663;49.120;9.730;2023-07-31T10:28:46;97793.69;;;24.44;59.63
19751;BME280;4663;49.120;9.730;2023-07-31T10:31:12;97781.13;;;24.03;58.83
19751;BME280;4663;49.120;9.730;2023-07-31T10:33:38;97797.34;;;23.87;60.80
19751;BME280;4663;49.120;9.730;2023-07-31T10:36:17;97792.91;;;24.26;60.09
19751;BME280;4663;49.120;9.730;2023-07-31T10:38:43;97787.94;;;24.45;60.61
19751;BME280;4663;49.120;9.730;2023-07-31T10:41:11;97801.75;;;24.56;63.57
19751;BME280;4663;49.120;9.730;2023-07-31T10:43:37;97779.09;;;24.38;59.67
19751;BME280;4663;49.120;9.730;2023-07-31T10:46:12;97767.69;;;24.24;59.90
19751;BME280;4663;49.120;9.730;2023-07-31T10:48:39;97760.31;;;23.85;59.38
19751;BME280;4663;49.120;9.730;2023-07-31T10:51:08;97754.94;;;23.90;58.94
19751;BME280;4663;49.120;9.730;2023-07-31T10:53:35;97763.72;;;24.14;59.55
19751;BME280;4663;49.120;9.730;2023-07-31T10:56:03;97758.66;;;24.01;59.56
19751;BME280;4663;49.120;9.730;2023-07-31T10:58:30;97744.28;;;24.38;57.31
19751;BME280;4663;49.120;9.730;2023-07-31T11:00:59;97751.22;;;24.46;59.35
19751;BME280;4663;49.120;9.730;2023-07-31T11:03:26;97767.06;;;24.66;58.89
19751;BME280;4663;49.120;9.730;2023-07-31T11:06:01;97751.81;;;24.26;58.20
19751;BME280;4663;49.120;9.730;2023-07-31T11:08:34;97748.88;;;23.66;59.90
19751;BME280;4663;49.120;9.730;2023-07-31T11:13:30;97758.91;;;23.99;59.30
19751;BME280;4663;49.120;9.730;2023-07-31T11:15:55;97764.06;;;23.96;59.90
19751;BME280;4663;49.120;9.730;2023-07-31T11:18:21;97776.81;;;24.57;60.61
19751;BME280;4663;49.120;9.730;2023-07-31T11:20:47;97765.28;;;24.05;59.79
19751;BME280;4663;49.120;9.730;2023-07-31T11:23:13;97756.63;;;24.41;59.73
19751;BME280;4663;49.120;9.730;2023-07-31T11:25:40;97744.91;;;24.18;60.30
19751;BME280;4663;49.120;9.730;2023-07-31T11:28:13;97758.66;;;24.01;60.68
19751;BME280;4663;49.120;9.730;2023-07-31T11:30:43;97753.47;;;24.27;59.82
19751;BME280;4663;49.120;9.730;2023-07-31T11:33:10;97763.41;;;23.88;59.95
19751;BME280;4663;49.120;9.730;2023-07-31T11:35:48;97751.75;;;23.76;59.49
19751;BME280;4663;49.120;9.730;2023-07-31T11:40:49;97756.88;;;23.95;60.86
19751;BME280;4663;49.120;9.730;2023-07-31T11:43:15;97751.66;;;23.93;60.68
19751;BME280;4663;49.120;9.730;2023-07-31T11:45:48;97744.22;;;24.33;59.84
19751;BME280;4663;49.120;9.730;2023-07-31T11:48:31;97741.75;;;24.32;62.39
19751;BME280;4663;49.120;9.730;2023-07-31T11:51:00;97742.19;;;23.56;61.66
19751;BME280;4663;49.120;9.730;2023-07-31T11:53:34;97728.06;;;23.87;61.30
19751;BME280;4663;49.120;9.730;2023-07-31T11:56:01;97728.19;;;24.47;61.01
19751;BME280;4663;49.120;9.730;2023-07-31T11:58:30;97709.19;;;24.35;59.57
19751;BME280;4663;49.120;9.730;2023-07-31T12:00:57;97710.38;;;24.45;59.47
19751;BME280;4663;49.120;9.730;2023-07-31T12:03:23;97718.59;;;24.45;59.32
19751;BME280;4663;49.120;9.730;2023-07-31T12:05:49;97694.03;;;24.55;58.60
19751;BME280;4663;49.120;9.730;2023-07-31T12:08:14;97703.84;;;24.51;60.18
19751;BME280;4663;49.120;9.730;2023-07-31T12:10:41;97696.50;;;24.84;59.44
19751;BME280;4663;49.120;9.730;2023-07-31T12:13:09;97690.53;;;24.98;58.79
19751;BME280;4663;49.120;9.730;2023-07-31T12:15:43;97695.31;;;24.47;58.27
19751;BME280;4663;49.120;9.730;2023-07-31T12:18:11;97687.91;;;24.75;59.18
19751;BME280;4663;49.120;9.730;2023-07-31T12:20:42;97692.00;;;24.73;59.15
19751;BME280;4663;49.120;9.730;2023-07-31T12:23:18;97687.31;;;25.06;58.83
19751;BME280;4663;49.120;9.730;2023-07-31T12:26:20;97674.16;;;25.03;57.69
19751;BME280;4663;49.120;9.730;2023-07-31T12:28:49;97695.72;;;25.27;63.66
19751;BME280;4663;49.120;9.730;2023-07-31T12:31:15;97695.63;;;25.16;64.20
19751;BME280;4663;49.120;9.730;2023-07-31T12:33:45;97653.69;;;25.26;58.55
19751;BME280;4663;49.120;9.730;2023-07-31T12:36:13;97668.16;;;25.11;59.81
19751;BME280;4663;49.120;9.730;2023-07-31T12:38:38;97679.13;;;25.11;61.64
19751;BME280;4663;49.120;9.730;2023-07-31T12:41:04;97649.97;;;25.00;58.06
19751;BME280;4663;49.120;9.730;2023-07-31T12:43:32;97660.47;;;24.43;60.39
19751;BME280;4663;49.120;9.730;2023-07-31T12:45:57;97647.47;;;24.93;59.56
19751;BME280;4663;49.120;9.730;2023-07-31T12:48:23;97649.91;;;24.89;59.46
19751;BME280;4663;49.120;9.730;2023-07-31T12:50:48;97645.66;;;25.14;59.43
19751;BME280;4663;49.120;9.730;2023-07-31T12:53:15;97645.34;;;25.05;59.07
19751;BME280;4663;49.120;9.730;2023-07-31T12:55:40;97641.28;;;25.13;59.23
19751;BME280;4663;49.120;9.730;2023-07-31T12:58:06;97628.94;;;24.73;57.62
19751;BME280;4663;49.120;9.730;2023-07-31T13:00:31;97658.59;;;24.76;62.83
19751;BME280;4663;49.120;9.730;2023-07-31T13:02:57;97612.41;;;24.62;57.62
19751;BME280;4663;49.120;9.730;2023-07-31T13:05:22;97629.19;;;25.09;59.42
19751;BME280;4663;49.120;9.730;2023-07-31T13:07:48;97652.63;;;24.24;61.48
19751;BME280;4663;49.120;9.730;2023-07-31T13:10:14;97617.28;;;24.55;58.80
19751;BME280;4663;49.120;9.730;2023-07-31T13:12:39;97625.84;;;24.31;60.33
19751;BME280;4663;49.120;9.730;2023-07-31T13:15:06;97625.69;;;24.76;61.45
19751;BME280;4663;49.120;9.730;2023-07-31T13:17:31;97611.97;;;24.43;61.04
19751;BME280;4663;49.120;9.730;2023-07-31T13:19:57;97625.81;;;24.97;64.11
19751;BME280;4663;49.120;9.730;2023-07-31T13:22:23;97604.50;;;25.14;61.42